Time;durP1;ratioP1;P1;durP2;ratioP2;P2;SDS_P1;SDS_P2;PMS_P1;PMS_P2;Temp;Humidity;BMP_temperature;BMP_pressure;BME280_temperature;BME280_humidity;BME280_pressure;Samples;Min_cycle;Max_cycle;Signal;HPM_P1;HPM_P2
2022/08/06 00:02:06;;;;;;;4.30;1.38;;;;;;;16.71;63.90;101814.16;4909128;28;121902;-79
2022/08/06 00:04:31;;;;;;;3.67;1.63;;;;;;;16.67;64.25;101810.78;4911192;28;120772;-79
2022/08/06 00:06:57;;;;;;;2.42;1.30;;;;;;;16.65;64.38;101802.91;4899508;28;119502;-79
2022/08/06 00:09:23;;;;;;;3.65;1.75;;;;;;;16.67;64.00;101813.56;4912765;28;119991;-79
2022/08/06 00:11:48;;;;;;;2.63;1.20;;;;;;;16.65;63.76;101818.78;4909730;28;120267;-79
2022/08/06 00:14:14;;;;;;;3.42;1.50;;;;;;;16.64;63.68;101818.00;4912162;28;120352;-79
2022/08/06 00:16:40;;;;;;;3.45;1.17;;;;;;;16.65;64.05;101827.84;4909827;28;120679;-79
2022/08/06 00:19:06;;;;;;;5.15;1.60;;;;;;;16.57;64.21;101810.03;4907211;28;119593;-80
2022/08/06 00:21:31;;;;;;;3.20;1.35;;;;;;;16.65;63.94;101827.84;4909322;28;121963;-79
2022/08/06 00:24:03;;;;;;;3.83;1.50;;;;;;;16.64;63.61;101820.00;4910480;28;120421;-79
2022/08/06 00:26:29;;;;;;;2.42;1.23;;;;;;;16.59;63.58;101813.09;4897744;28;120399;-79
2022/08/06 00:28:55;;;;;;;1.77;1.20;;;;;;;16.66;63.73;101831.38;4877842;28;123150;-79
2022/08/06 00:31:20;;;;;;;2.75;1.50;;;;;;;16.58;63.63;101817.88;4891668;28;119737;-79
2022/08/06 00:33:46;;;;;;;3.60;1.70;;;;;;;16.59;63.47;101821.41;4906987;28;121629;-79
2022/08/06 00:36:12;;;;;;;3.75;1.90;;;;;;;16.52;63.05;101822.47;4908040;28;122961;-79
2022/08/06 00:38:37;;;;;;;4.00;1.50;;;;;;;16.57;63.25;101835.72;4910999;28;120198;-79
2022/08/06 00:41:03;;;;;;;5.18;1.42;;;;;;;16.53;63.30;101831.53;4910136;28;122089;-79
2022/08/06 00:43:50;;;;;;;3.00;1.70;;;;;;;16.57;63.16;101844.03;4881142;28;122825;-79
2022/08/06 00:46:16;;;;;;;3.95;1.92;;;;;;;16.54;62.91;101844.16;4911003;28;119948;-79
2022/08/06 00:48:41;;;;;;;5.15;1.63;;;;;;;16.55;62.70;101857.53;4896344;28;122564;-79
2022/08/06 00:51:07;;;;;;;3.20;1.40;;;;;;;16.52;63.16;101852.94;4894248;28;119958;-79
2022/08/06 00:53:33;;;;;;;3.15;1.50;;;;;;;16.50;62.96;101847.09;4907169;28;121708;-79
2022/08/06 00:56:00;;;;;;;2.75;1.58;;;;;;;16.48;63.23;101857.09;4894246;28;122152;-79
2022/08/06 00:58:26;;;;;;;2.17;1.20;;;;;;;16.40;63.53;101851.13;4911761;28;119877;-79
2022/08/06 01:00:52;;;;;;;2.92;1.30;;;;;;;16.44;63.29;101862.03;4910341;28;122356;-79
2022/08/06 01:03:17;;;;;;;2.42;1.30;;;;;;;16.41;63.23;101855.41;4896328;28;119979;-79
2022/08/06 01:05:43;;;;;;;3.25;1.40;;;;;;;16.36;62.82;101861.59;4891290;28;119794;-79
2022/08/06 01:08:12;;;;;;;4.50;1.50;;;;;;;16.31;63.30;101858.63;4893576;28;119903;-79
2022/08/06 01:10:38;;;;;;;5.10;1.40;;;;;;;16.30;63.22;101860.63;4900481;28;120023;-79
2022/08/06 01:13:04;;;;;;;4.78;1.80;;;;;;;16.28;63.71;101863.09;4912892;28;120103;-80
2022/08/06 01:15:32;;;;;;;3.65;1.50;;;;;;;16.21;63.48;101866.19;4909253;28;121936;-79
2022/08/06 01:18:07;;;;;;;5.20;1.40;;;;;;;16.25;63.76;101862.03;4902448;28;120041;-79
2022/08/06 01:20:47;;;;;;;4.07;1.40;;;;;;;16.31;63.91;101864.94;4894332;28;121980;-79
2022/08/06 01:23:16;;;;;;;1.85;1.50;;;;;;;16.34;63.96;101866.81;4910455;28;122580;-79
2022/08/06 01:26:09;;;;;;;3.78;1.40;;;;;;;16.35;63.96;101871.13;4910012;28;119634;-79
2022/08/06 01:28:43;;;;;;;3.23;1.37;;;;;;;16.22;64.01;101851.88;4901083;28;122516;-79
2022/08/06 01:31:14;;;;;;;4.07;1.48;;;;;;;16.34;63.65;101864.03;4909765;28;120251;-79
2022/08/06 01:33:47;;;;;;;1.83;1.25;;;;;;;16.35;63.84;101868.34;4914302;28;119605;-79
2022/08/06 01:36:20;;;;;;;3.08;1.40;;;;;;;16.34;63.72;101866.81;4904811;28;120439;-79
2022/08/06 01:38:50;;;;;;;2.67;1.20;;;;;;;16.39;63.56;101882.03;4890594;28;120420;-79
2022/08/06 01:41:39;;;;;;;4.28;1.30;;;;;;;16.36;63.57;101889.28;4890094;28;120235;-79
2022/08/06 01:44:11;;;;;;;2.65;1.38;;;;;;;16.27;63.15;101881.72;4900804;28;120185;-79
2022/08/06 01:46:42;;;;;;;4.47;1.50;;;;;;;16.32;64.03;101888.63;4910119;28;120389;-79
2022/08/06 01:49:10;;;;;;;2.05;1.20;;;;;;;16.32;64.58;101891.41;4894325;28;122787;-79
2022/08/06 01:51:38;;;;;;;4.53;1.60;;;;;;;16.32;64.46;101888.63;4908548;28;120181;-79
2022/08/06 01:54:07;;;;;;;4.00;1.40;;;;;;;16.29;64.08;101884.03;4905501;28;120016;-79
2022/08/06 01:56:36;;;;;;;3.60;1.40;;;;;;;16.27;64.24;101881.72;4913375;28;119934;-79
2022/08/06 01:59:04;;;;;;;1.90;1.30;;;;;;;16.34;64.64;101886.19;4893483;28;119692;-79
2022/08/06 02:01:33;;;;;;;4.63;2.08;;;;;;;16.40;64.60;101884.34;4899264;28;119682;-79
2022/08/06 02:04:00;;;;;;;2.28;1.20;;;;;;;16.51;64.68;101894.94;4906218;28;120260;-80
2022/08/06 02:06:33;;;;;;;4.85;1.40;;;;;;;16.56;64.21;101897.88;4909820;28;120107;-79
2022/08/06 02:09:02;;;;;;;6.45;1.30;;;;;;;16.63;64.23;101894.03;4890391;28;121702;-79
2022/08/06 02:11:29;;;;;;;1.40;1.00;;;;;;;16.59;63.81;101885.13;4900675;28;120144;-79
2022/08/06 02:13:56;;;;;;;3.38;1.30;;;;;;;16.67;64.18;101896.66;4893965;28;119942;-79
2022/08/06 02:16:23;;;;;;;5.82;1.45;;;;;;;16.62;64.25;101895.25;4908586;28;121162;-80
2022/08/06 02:18:51;;;;;;;3.22;1.42;;;;;;;16.67;64.11;101907.75;4875214;28;120096;-79
2022/08/06 02:21:20;;;;;;;4.38;1.50;;;;;;;16.62;64.16;101900.81;4901610;28;119911;-79
2022/08/06 02:23:48;;;;;;;6.65;1.30;;;;;;;16.65;63.85;101904.66;4893497;28;123619;-79
2022/08/06 02:26:15;;;;;;;4.85;1.40;;;;;;;16.64;63.85;101903.09;4890301;28;119717;-79
2022/08/06 02:28:43;;;;;;;3.30;1.58;;;;;;;16.58;63.99;101889.13;4902723;28;120015;-79
2022/08/06 02:31:09;;;;;;;2.35;1.30;;;;;;;16.60;63.84;101897.72;4890508;28;122746;-79
2022/08/06 02:33:35;;;;;;;3.28;1.17;;;;;;;16.64;63.62;101897.56;4908899;28;120416;-79
2022/08/06 02:36:14;;;;;;;2.70;1.38;;;;;;;16.58;63.51;101889.88;4909030;28;119684;-79
2022/08/06 02:38:47;;;;;;;4.50;1.60;;;;;;;16.61;63.65;101901.28;4899894;28;120220;-79
2022/08/06 02:41:21;;;;;;;2.95;1.40;;;;;;;16.58;63.57;101912.03;4904975;28;122163;-79
2022/08/06 02:43:52;;;;;;;3.38;1.63;;;;;;;16.52;63.33;101902.78;4893828;28;123262;-79
2022/08/06 02:46:37;;;;;;;2.72;1.67;;;;;;;16.51;63.79;101922.66;4909059;28;121356;-79
2022/08/06 02:49:18;;;;;;;3.67;1.70;;;;;;;16.46;63.61;101917.72;4890448;28;121809;-79
2022/08/06 02:51:56;;;;;;;2.90;1.70;;;;;;;16.43;63.88;101924.97;4907482;28;121316;-79
2022/08/06 02:54:41;;;;;;;5.55;1.90;;;;;;;16.34;63.71;101913.13;4909984;28;119466;-79
2022/08/06 02:57:12;;;;;;;5.63;2.03;;;;;;;16.38;63.96;101928.34;4908643;28;121909;-79
2022/08/06 02:59:45;;;;;;;6.13;1.90;;;;;;;16.38;64.30;101935.88;4908883;28;120361;-79
2022/08/06 03:02:14;;;;;;;6.55;2.03;;;;;;;16.36;64.39;101933.56;4912145;28;119973;-79
2022/08/06 03:04:45;;;;;;;2.45;1.63;;;;;;;16.32;64.11;101921.09;4906332;28;120292;-79
2022/08/06 03:07:13;;;;;;;5.00;1.92;;;;;;;16.31;64.19;101923.09;4890159;28;120030;-79
2022/08/06 03:09:44;;;;;;;5.15;1.55;;;;;;;16.32;64.26;101932.94;4906479;28;119769;-79
2022/08/06 03:12:12;;;;;;;4.28;1.80;;;;;;;16.26;64.10;101924.47;4906988;28;119962;-79
2022/08/06 03:14:39;;;;;;;3.67;1.77;;;;;;;16.14;64.08;101914.31;4906513;28;119660;-79
2022/08/06 03:17:07;;;;;;;5.05;1.63;;;;;;;16.25;64.67;101930.47;4895395;28;122069;-79
2022/08/06 03:19:35;;;;;;;6.85;1.70;;;;;;;16.20;64.23;101937.38;4912454;28;123323;-79
2022/08/06 03:22:02;;;;;;;2.58;1.50;;;;;;;16.18;64.43;101931.53;4896090;28;119685;-79
2022/08/06 03:24:29;;;;;;;5.10;1.42;;;;;;;16.19;64.14;101935.84;4906184;28;122561;-79
2022/08/06 03:26:58;;;;;;;4.15;1.83;;;;;;;16.21;64.17;101935.38;4904041;28;119802;-79
2022/08/06 03:29:26;;;;;;;3.42;1.50;;;;;;;16.27;64.48;101945.41;4913428;28;119656;-79
2022/08/06 03:31:53;;;;;;;2.85;1.77;;;;;;;16.29;64.62;101944.94;4911846;28;120177;-80
2022/08/06 03:34:19;;;;;;;2.83;1.30;;;;;;;16.32;64.09;101957.84;4894876;28;119714;-79
2022/08/06 03:36:46;;;;;;;3.30;1.70;;;;;;;16.30;64.05;101952.00;4860807;28;122445;-79
2022/08/06 03:39:13;;;;;;;4.82;1.45;;;;;;;16.30;64.16;101949.25;4876277;28;122759;-79
2022/08/06 03:41:40;;;;;;;2.28;1.45;;;;;;;16.31;64.45;101950.00;4889626;28;120051;-79
2022/08/06 03:44:06;;;;;;;4.28;1.40;;;;;;;16.28;64.08;101949.69;4895932;28;121690;-79
2022/08/06 03:46:46;;;;;;;3.47;1.42;;;;;;;16.34;64.23;101955.44;4898946;28;122884;-79
2022/08/06 03:49:27;;;;;;;2.78;1.40;;;;;;;16.32;63.99;101954.31;4911618;28;122474;-79
2022/08/06 03:51:54;;;;;;;2.75;1.50;;;;;;;16.35;63.89;101956.97;4912018;28;120629;-79
2022/08/06 03:54:34;;;;;;;2.50;1.27;;;;;;;16.36;63.33;101957.72;4913707;28;119756;-79
2022/08/06 03:57:10;;;;;;;1.80;1.17;;;;;;;16.33;62.73;101959.41;4912586;28;119760;-79
2022/08/06 03:59:38;;;;;;;3.42;1.40;;;;;;;16.32;63.55;101955.09;4907553;28;120049;-79
2022/08/06 04:02:05;;;;;;;3.72;1.20;;;;;;;16.26;63.24;101954.94;4905206;28;119892;-79
2022/08/06 04:04:32;;;;;;;2.05;1.40;;;;;;;16.30;63.87;101963.09;4895895;28;123259;-79
2022/08/06 04:06:59;;;;;;;4.60;1.80;;;;;;;16.27;63.88;101958.47;4911506;28;120162;-79
2022/08/06 04:09:27;;;;;;;7.82;1.50;;;;;;;16.33;63.79;101964.97;4916136;28;120206;-79
2022/08/06 04:11:54;;;;;;;4.68;1.40;;;;;;;16.34;64.06;101963.72;4910263;28;120054;-79
2022/08/06 04:14:21;;;;;;;4.65;1.38;;;;;;;16.30;64.08;101962.31;4909106;28;119572;-79
2022/08/06 04:16:48;;;;;;;3.92;1.15;;;;;;;16.36;63.81;101966.81;4894719;28;122241;-79
2022/08/06 04:19:20;;;;;;;2.95;1.40;;;;;;;16.36;64.17;101966.81;4911846;28;120621;-79
2022/08/06 04:21:46;;;;;;;2.83;1.23;;;;;;;16.39;63.81;101971.44;4891597;28;119724;-79
2022/08/06 04:24:13;;;;;;;3.80;1.30;;;;;;;16.39;64.04;101960.34;4904809;28;120118;-80
2022/08/06 04:26:42;;;;;;;1.95;1.10;;;;;;;16.51;63.63;101972.50;4910139;28;120079;-79
2022/08/06 04:29:11;;;;;;;2.28;1.20;;;;;;;16.53;63.03;101965.25;4895434;28;119629;-79
2022/08/06 04:31:39;;;;;;;2.30;1.13;;;;;;;16.60;62.82;101969.75;4910462;28;122522;-79
2022/08/06 04:34:05;;;;;;;2.58;1.08;;;;;;;16.64;62.73;101975.13;4913309;28;119589;-79
2022/08/06 04:36:32;;;;;;;5.13;1.20;;;;;;;16.63;62.81;101968.81;4879538;28;122493;-79
2022/08/06 04:38:58;;;;;;;3.00;1.40;;;;;;;16.64;63.14;101966.81;4875104;28;122811;-79
2022/08/06 04:41:24;;;;;;;4.60;1.27;;;;;;;16.75;63.26;101979.00;4882824;28;119547;-79
2022/08/06 04:43:51;;;;;;;4.10;1.30;;;;;;;16.72;63.78;101968.06;4913102;28;119553;-79
2022/08/06 04:46:17;;;;;;;3.72;1.20;;;;;;;16.91;63.70;101988.25;4911448;28;119989;-79
2022/08/06 04:48:43;;;;;;;2.53;1.20;;;;;;;16.98;63.54;101983.16;4907650;28;119657;-79
2022/08/06 04:51:11;;;;;;;4.05;1.38;;;;;;;17.01;63.86;101970.38;4899325;28;119888;-78
2022/08/06 04:53:39;;;;;;;5.03;1.10;;;;;;;17.16;63.19;101988.69;4895289;28;120638;-79
2022/08/06 04:56:07;;;;;;;3.97;1.13;;;;;;;17.13;63.24;101978.53;4911456;28;120293;-79
2022/08/06 04:58:33;;;;;;;4.95;1.40;;;;;;;17.27;62.68;101993.75;4906557;28;122715;-79
2022/08/06 05:01:00;;;;;;;3.72;1.25;;;;;;;17.32;62.37;101995.13;4905907;28;119749;-78
2022/08/06 05:03:26;;;;;;;2.40;1.08;;;;;;;17.34;62.32;101993.44;4911708;28;122524;-80
2022/08/06 05:06:11;;;;;;;6.30;1.45;;;;;;;17.44;61.47;102003.25;4874550;28;123271;-79
2022/08/06 05:08:40;;;;;;;2.28;0.80;;;;;;;17.52;61.28;102008.50;4876692;28;120128;-79
2022/08/06 05:11:26;;;;;;;2.00;1.20;;;;;;;17.60;61.40;102018.78;4900678;28;119531;-79
2022/08/06 05:14:00;;;;;;;4.85;1.35;;;;;;;17.64;61.08;102013.84;4911853;28;123008;-79
2022/08/06 05:16:29;;;;;;;5.85;1.30;;;;;;;17.66;60.76;102014.13;4895686;28;119580;-79
2022/08/06 05:19:00;;;;;;;2.60;1.27;;;;;;;17.69;60.85;102018.78;4878801;28;123308;-79
2022/08/06 05:21:35;;;;;;;2.63;1.10;;;;;;;17.71;60.81;102012.75;4912097;28;120039;-79
2022/08/06 05:24:02;;;;;;;5.60;1.40;;;;;;;17.71;60.63;102010.75;4910184;28;120888;-80
2022/08/06 05:26:29;;;;;;;3.88;1.50;;;;;;;17.84;61.17;102026.44;4875038;28;123424;-79
2022/08/06 05:28:55;;;;;;;4.80;1.30;;;;;;;17.86;60.95;102021.97;4894119;28;119749;-80
2022/08/06 05:31:35;;;;;;;3.95;1.48;;;;;;;17.92;61.02;102033.97;4910252;28;119703;-79
2022/08/06 05:34:21;;;;;;;3.45;1.55;;;;;;;17.93;60.54;102018.84;4907829;28;120117;-79
2022/08/06 05:36:47;;;;;;;4.30;1.73;;;;;;;18.00;60.30;102031.63;4893310;28;120128;-80
2022/08/06 05:39:13;;;;;;;5.38;1.60;;;;;;;18.00;60.42;102037.19;4889389;28;122810;-79
2022/08/06 05:41:41;;;;;;;6.50;2.35;;;;;;;18.08;60.44;102038.38;4906712;28;120398;-79
2022/08/06 05:44:06;;;;;;;6.15;1.95;;;;;;;18.12;60.16;102043.75;4906877;28;122025;-80
2022/08/06 05:46:42;;;;;;;2.85;1.70;;;;;;;18.17;60.17;102040.34;4907932;28;120016;-80
2022/08/06 05:49:21;;;;;;;5.00;2.10;;;;;;;18.30;60.08;102049.22;4895085;28;119786;-79
2022/08/06 05:51:55;;;;;;;8.38;2.03;;;;;;;18.35;60.18;102054.13;4878553;28;122277;-79
2022/08/06 05:54:40;;;;;;;7.30;2.25;;;;;;;18.48;59.82;102049.13;4890227;28;122258;-79
2022/08/06 05:57:14;;;;;;;4.72;2.00;;;;;;;18.57;59.63;102051.06;4891217;28;119769;-79
2022/08/06 05:59:48;;;;;;;3.85;2.20;;;;;;;18.56;58.81;102050.31;4894872;28;119869;-79
2022/08/06 06:02:15;;;;;;;6.90;2.10;;;;;;;18.56;59.43;102047.53;4904406;28;119959;-80
2022/08/06 06:04:42;;;;;;;4.85;2.45;;;;;;;18.61;59.50;102038.53;4874642;28;122066;-79
2022/08/06 06:07:17;;;;;;;6.15;2.42;;;;;;;18.69;58.45;102055.63;4875645;28;123570;-79
2022/08/06 06:09:43;;;;;;;6.97;2.42;;;;;;;18.71;58.40;102061.53;4874599;28;119865;-79
2022/08/06 06:12:29;;;;;;;5.18;2.60;;;;;;;18.72;58.47;102060.28;4894665;28;122103;-79
2022/08/06 06:14:55;;;;;;;8.50;3.05;;;;;;;18.78;58.39;102072.28;4892984;28;120244;-80
2022/08/06 06:17:30;;;;;;;6.15;2.42;;;;;;;18.81;58.59;102065.00;4908856;28;119858;-80
2022/08/06 06:20:14;;;;;;;5.97;2.97;;;;;;;18.92;58.53;102081.88;4909657;28;121820;-80
2022/08/06 06:23:01;;;;;;;8.13;3.20;;;;;;;18.89;58.32;102078.03;4900635;28;121241;-80
2022/08/06 06:25:34;;;;;;;5.90;2.58;;;;;;;19.01;58.87;102081.84;4890184;28;122314;-80
2022/08/06 06:28:05;;;;;;;6.15;3.08;;;;;;;19.06;58.56;102091.53;4894022;28;122922;-80
2022/08/06 06:30:51;;;;;;;6.53;2.50;;;;;;;19.08;57.52;102086.25;4899802;28;119709;-80
2022/08/06 06:33:19;;;;;;;5.93;2.95;;;;;;;19.07;56.98;102079.94;4905708;28;120679;-80
2022/08/06 06:35:51;;;;;;;5.55;3.17;;;;;;;19.12;56.77;102090.38;4876954;28;123002;-80
2022/08/06 06:38:20;;;;;;;7.45;3.40;;;;;;;19.20;57.98;102101.94;4909833;28;119882;-79
2022/08/06 06:41:08;;;;;;;6.00;3.22;;;;;;;19.24;57.68;102097.72;4908406;28;120255;-80
2022/08/06 06:44:03;;;;;;;5.72;3.00;;;;;;;19.30;57.64;102095.81;4913307;28;119995;-80
2022/08/06 06:46:32;;;;;;;5.90;3.47;;;;;;;19.38;57.64;102100.97;4874438;28;122542;-79
2022/08/06 06:49:08;;;;;;;8.80;3.58;;;;;;;19.47;58.68;102103.69;4904464;28;120701;-80
2022/08/06 06:51:40;;;;;;;5.57;3.65;;;;;;;19.51;57.78;102104.28;4909873;28;119508;-79
2022/08/06 06:54:10;;;;;;;6.78;3.67;;;;;;;19.51;57.26;102096.69;4913118;28;122902;-79
2022/08/06 06:56:45;;;;;;;11.55;3.63;;;;;;;19.48;56.12;102092.09;4912974;28;120031;-79
2022/08/06 06:59:16;;;;;;;6.93;3.28;;;;;;;19.57;56.69;102108.72;4909424;28;120303;-80
2022/08/06 07:01:44;;;;;;;8.38;3.65;;;;;;;19.55;56.39;102102.09;4906747;28;121773;-79
2022/08/06 07:04:14;;;;;;;8.13;4.07;;;;;;;19.63;56.56;102117.16;4912145;28;123985;-79
2022/08/06 07:06:41;;;;;;;7.63;4.50;;;;;;;19.68;56.03;102118.53;4915317;28;120048;-79
2022/08/06 07:09:09;;;;;;;10.13;4.40;;;;;;;19.64;56.60;102107.59;4913605;28;120065;-80
2022/08/06 07:11:36;;;;;;;9.65;4.55;;;;;;;19.74;56.30;102113.81;4910651;28;119976;-79
2022/08/06 07:14:03;;;;;;;7.93;4.32;;;;;;;19.72;56.21;102108.75;4919228;28;121852;-79
2022/08/06 07:16:50;;;;;;;8.35;4.20;;;;;;;19.83;56.18;102122.06;4913708;28;120185;-80
2022/08/06 07:19:18;;;;;;;7.85;4.88;;;;;;;19.89;55.51;102122.94;4913344;28;120040;-79
2022/08/06 07:21:45;;;;;;;9.27;4.75;;;;;;;19.97;55.64;102128.91;4913000;28;119980;-80
2022/08/06 07:24:12;;;;;;;10.32;4.90;;;;;;;20.04;55.08;102134.06;4911485;28;120059;-80
2022/08/06 07:26:42;;;;;;;7.90;4.70;;;;;;;20.09;54.63;102125.03;4912348;28;119762;-80
2022/08/06 07:29:39;;;;;;;9.52;4.95;;;;;;;20.22;54.65;102129.06;4916503;28;119838;-80
2022/08/06 07:32:08;;;;;;;12.20;4.90;;;;;;;20.31;54.06;102124.59;4912587;28;120135;-80
2022/08/06 07:34:35;;;;;;;8.10;5.20;;;;;;;20.43;53.89;102120.78;4912419;28;119890;-80
2022/08/06 07:37:02;;;;;;;8.52;5.28;;;;;;;20.52;51.98;102124.19;4911157;28;120395;-80
2022/08/06 07:39:32;;;;;;;9.40;5.07;;;;;;;20.60;52.36;102132.19;4914084;28;119590;-80
2022/08/06 07:42:01;;;;;;;7.45;5.13;;;;;;;20.62;51.24;102122.06;4905817;28;119585;-80
2022/08/06 07:44:28;;;;;;;6.63;5.10;;;;;;;20.72;51.21;102137.41;4895354;28;122617;-80
2022/08/06 07:46:58;;;;;;;8.95;5.30;;;;;;;20.81;51.81;102140.06;4911019;28;119803;-80
2022/08/06 07:49:32;;;;;;;11.55;6.03;;;;;;;20.88;51.45;102138.13;4911573;28;122162;-80
2022/08/06 07:52:00;;;;;;;10.73;5.85;;;;;;;20.77;50.98;102149.88;4915792;28;120080;-80
2022/08/06 07:54:30;;;;;;;14.40;6.10;;;;;;;20.69;51.77;102155.13;4909196;28;122152;-80
2022/08/06 07:56:57;;;;;;;10.48;5.85;;;;;;;20.76;52.32;102163.06;4911147;28;120927;-79
2022/08/06 07:59:24;;;;;;;9.85;6.32;;;;;;;20.96;52.26;102150.41;4911828;28;119617;-79
2022/08/06 08:01:59;;;;;;;;;;;;;;;21.33;51.84;102148.59;4910436;28;119676;-80
2022/08/06 08:07:12;;;;;;;;;;;;;;;21.80;50.14;102157.72;4913947;28;120070;-80
2022/08/06 08:09:38;;;;;;;;;;;;;;;21.72;49.92;102157.38;4914194;28;119912;-80
2022/08/06 08:12:06;;;;;;;;;;;;;;;21.53;49.17;102166.56;4910377;28;120027;-80
2022/08/06 08:14:31;;;;;;;;;;;;;;;21.32;49.60;102166.63;4916860;28;120654;-79
2022/08/06 08:16:57;;;;;;;;;;;;;;;21.37;50.38;102162.34;4911136;28;123719;-79
2022/08/06 08:19:27;;;;;;;;;;;;;;;21.54;49.92;102166.09;4912486;28;120056;-80
2022/08/06 08:21:56;;;;;;;;;;;;;;;21.68;48.13;102153.28;4891881;28;120233;-80
2022/08/06 08:24:25;;;;;;;;;;;;;;;21.88;48.64;102150.41;4904900;28;120142;-80
2022/08/06 08:26:50;;;;;;;;;;;;;;;22.16;47.37;102161.09;4907367;28;120638;-79
2022/08/06 08:29:16;;;;;;;;;;;;;;;22.31;46.11;102164.53;4906942;28;120274;-79
2022/08/06 08:31:41;;;;;;;;;;;;;;;22.48;46.46;102156.25;4909373;28;120933;-79
2022/08/06 08:34:07;;;;;;;;;;;;;;;22.70;46.83;102161.97;4907471;28;121763;-80
2022/08/06 08:36:32;;;;;;;;;;;;;;;22.82;46.06;102162.84;4892560;28;121581;-79
2022/08/06 08:38:58;;;;;;;;;;;;;;;22.77;45.17;102166.34;4906105;28;121972;-80
2022/08/06 08:41:25;;;;;;;;;;;;;;;22.60;45.69;102172.59;4888305;28;122401;-79
2022/08/06 08:44:02;;;;;;;;;;;;;;;22.40;45.66;102178.31;4904876;28;120339;-79
2022/08/06 08:46:29;;;;;;;;;;;;;;;22.13;46.19;102201.22;4892089;28;120268;-79
2022/08/06 08:49:20;;;;;;;;;;;;;;;;;;4911783;28;120331;-79
2022/08/06 08:51:47;;;;;;;;;;;;;;;21.43;48.91;102208.59;4904235;28;123849;-79
2022/08/06 08:54:16;;;;;;;;;;;;;;;21.17;49.85;102216.09;4910335;28;120056;-80
2022/08/06 08:56:43;;;;;;;;;;;;;;;20.99;50.83;102219.16;4911846;28;122109;-80
2022/08/06 08:59:09;;;;;;;;;;;;;;;20.84;51.62;102225.56;4913044;28;119957;-80
2022/08/06 09:01:35;;;;;;;;;;;;;;;20.77;52.16;102217.59;4913026;28;120091;-79
2022/08/06 09:04:04;;;;;;;;;;;;;;;20.71;52.75;102216.75;4913874;28;121555;-79
2022/08/06 09:06:32;;;;;;;;;;;;;;;20.67;52.94;102224.53;4894895;28;120168;-80
2022/08/06 09:09:02;;;;;;;;;;;;;;;20.66;52.90;102219.44;4914354;28;120535;-79
2022/08/06 09:11:48;;;;;;;;;;;;;;;20.79;53.56;102212.28;4903234;28;120721;-79
2022/08/06 09:14:14;;;;;;;;;;;;;;;21.04;53.36;102207.31;4908569;28;120508;-79
2022/08/06 09:16:39;;;;;;;;;;;;;;;21.35;52.86;102199.13;4909112;28;121277;-79
2022/08/06 09:19:06;;;;;;;;;;;;;;;21.66;51.92;102190.06;4890381;28;122423;-80
2022/08/06 09:21:33;;;;;;;;;;;;;;;21.94;50.92;102195.94;4908745;28;120318;-80
2022/08/06 09:24:22;;;;;;;;;;;;;;;21.99;50.11;102200.78;4905192;28;120267;-79
2022/08/06 09:27:00;;;;;;;;;;;;;;;21.90;48.94;102198.19;4893432;28;120105;-80
2022/08/06 09:29:26;;;;;;;;;;;;;;;21.76;49.28;102210.22;4895264;28;121879;-80
2022/08/06 09:31:51;;;;;;;;;;;;;;;;;;4911792;28;120488;-79
2022/08/06 09:34:17;;;;;;;;;;;;;;;21.90;48.83;102216.97;4910428;28;121787;-79
2022/08/06 09:36:46;;;;;;;;;;;;;;;22.02;48.37;102219.38;4909829;28;120421;-79
2022/08/06 09:39:12;;;;;;;;;;;;;;;22.02;47.64;102216.59;4910246;28;123648;-79
2022/08/06 09:41:47;;;;;;;;;;;;;;;21.97;47.29;102214.50;4913618;28;120025;-80
2022/08/06 09:44:12;;;;;;;;;;;;;;;21.88;47.07;102223.06;4908809;28;121398;-79
2022/08/06 09:46:38;;;;;;;;;;;;;;;21.85;47.22;102228.84;4892984;28;120273;-79
2022/08/06 09:49:13;;;;;;;;;;;;;;;21.94;47.63;102232.25;4906495;28;119799;-79
2022/08/06 09:51:40;;;;;;;;;;;;;;;22.09;46.79;102234.22;4890928;28;123272;-80
2022/08/06 09:54:07;;;;;;;;;;;;;;;22.18;47.12;102231.22;4905886;28;120184;-80
2022/08/06 09:56:32;;;;;;;;;;;;;;;22.29;47.26;102229.31;4894623;28;122379;-80
2022/08/06 09:58:59;;;;;;;;;;;;;;;22.44;47.34;102222.81;4907886;28;121002;-80
2022/08/06 10:01:25;;;;;;;;;;;;;;;22.47;47.12;102236.56;4888706;28;122453;-79
2022/08/06 10:03:52;;;;;;;;;;;;;;;22.54;46.92;102227.72;4893965;28;122142;-79
2022/08/06 10:06:20;;;;;;;;;;;;;;;22.63;46.56;102233.13;4890085;28;120343;-80
2022/08/06 10:08:50;;;;;;;;;;;;;;;22.74;46.75;102224.06;4907098;28;120397;-80
2022/08/06 10:11:31;;;;;;;;;;;;;;;22.89;47.18;102235.09;4905507;28;122370;-81
2022/08/06 10:13:57;;;;;;;;;;;;;;;23.06;46.67;102230.38;4906808;28;121475;-79
2022/08/06 10:16:26;;;;;;;;;;;;;;;23.24;45.41;102232.75;4890157;28;122641;-80
2022/08/06 10:18:52;;;;;;;;;;;;;;;23.31;44.67;102236.34;4904286;28;124091;-81
2022/08/06 10:21:19;;;;;;;;;;;;;;;23.15;44.50;102241.34;4906970;28;120750;-80
2022/08/06 10:23:49;;;;;;;;;;;;;;;22.99;44.27;102238.47;4907399;28;120384;-80
2022/08/06 10:26:24;;;;;;;;;;;;;;;22.83;44.54;102246.25;4910474;28;120972;-79
2022/08/06 10:28:50;;;;;;;;;;;;;;;22.66;44.36;102246.09;4889443;28;121748;-80
2022/08/06 10:31:16;;;;;;;;;;;;;;;22.48;45.10;102254.88;4890459;28;123890;-80
2022/08/06 10:33:45;;;;;;;;;;;;;;;22.31;45.52;102253.97;4890980;28;120458;-80
2022/08/06 10:36:15;;;;;;;;;;;;;;;22.20;46.11;102253.84;4904823;28;119916;-80
2022/08/06 10:38:47;;;;;;;;;;;;;;;22.24;46.49;102243.22;4908686;28;120879;-80
2022/08/06 10:41:13;;;;;;;;;;;;;;;22.46;46.89;102243.41;4907749;28;120376;-80
2022/08/06 10:43:40;;;;;;;;;;;;;;;22.58;46.20;102239.44;4889500;28;122115;-80
2022/08/06 10:46:10;;;;;;;;;;;;;;;22.57;46.10;102246.31;4922934;28;123870;-80
2022/08/06 10:48:37;;;;;;;;;;;;;;;22.42;45.57;102253.28;4910954;28;120569;-79
2022/08/06 10:51:03;;;;;;;;;;;;;;;22.26;45.12;102246.31;4905876;28;124324;-81
2022/08/06 10:53:29;;;;;;;;;;;;;;;22.17;44.11;102249.25;4886223;28;120196;-80
2022/08/06 10:55:56;;;;;;;;;;;;;;;22.22;44.47;102238.13;4906290;28;120324;-80
2022/08/06 10:58:22;;;;;;;;;;;;;;;22.34;44.63;102248.16;4907344;28;120321;-80
2022/08/06 11:00:48;;;;;;;;;;;;;;;22.49;44.63;102236.84;4889514;28;120601;-80
2022/08/06 11:03:21;;;;;;;;;;;;;;;22.62;44.34;102242.00;4921764;28;122310;-80
2022/08/06 11:05:50;;;;;;;;;;;;;;;22.67;43.92;102239.25;4888545;28;123810;-79
2022/08/06 11:08:23;;;;;;;;;;;;;;;22.76;44.07;102231.94;4909869;28;120549;-80
2022/08/06 11:10:58;;;;;;;;;;;;;;;22.85;43.91;102234.56;4904770;28;120534;-80
2022/08/06 11:13:23;;;;;;;;;;;;;;;22.96;43.40;102240.25;4904887;28;120734;-80
2022/08/06 11:15:49;;;;;;;;;;;;;;;23.03;42.11;102231.38;4887314;28;122605;-81
2022/08/06 11:18:15;;;;;;;;;;;;;;;23.06;41.92;102229.59;4904480;28;121495;-79
2022/08/06 11:20:42;;;;;;;;;;;;;;;23.15;42.04;102230.16;4903959;28;122464;-81
2022/08/06 11:23:10;;;;;;;;;;;;;;;23.23;42.78;102224.84;4904514;28;122451;-80
2022/08/06 11:25:36;;;;;;;;;;;;;;;23.27;41.72;102245.75;4903787;28;121300;-80
2022/08/06 11:28:04;;;;;;;;;;;;;;;23.25;40.24;102239.13;4903374;28;121976;-80
2022/08/06 11:30:38;;;;;;;;;;;;;;;23.24;40.53;102234.78;4890893;28;122456;-81
2022/08/06 11:33:03;;;;;;;;;;;;;;;23.31;42.65;102247.53;4889413;28;121225;-81
2022/08/06 11:35:35;;;;;;;;;;;;;;;23.36;43.64;102247.56;4902870;28;121917;-81
2022/08/06 11:38:04;;;;;;;;;;;;;;;23.31;44.67;102247.53;4908049;28;121242;-80
2022/08/06 11:40:48;;;;;;;;;;;;;;;23.24;44.57;102246.00;4909168;28;121507;-80
2022/08/06 11:43:34;;;;;;;;;;;;;;;23.14;45.25;102251.00;4906305;28;123617;-81
2022/08/06 11:46:18;;;;;;;;;;;;;;;23.11;45.14;102245.66;4906121;28;120995;-81
2022/08/06 11:49:07;;;;;;;;;;;;;;;23.11;44.77;102246.41;4906332;28;120822;-80
2022/08/06 11:51:42;;;;;;;;;;;;;;;23.15;44.45;102252.53;4905615;28;120549;-81
2022/08/06 11:54:48;;;;;;;;;;;;;;;23.33;44.44;102256.19;4904310;28;121644;-80
2022/08/06 11:57:14;;;;;;;;;;;;;;;23.56;43.86;102249.44;4905428;28;123257;-81